Time;durP1;ratioP1;P1;durP2;ratioP2;P2;SDS_P1;SDS_P2;PMS_P1;PMS_P2;Temp;Humidity;BMP_temperature;BMP_pressure;BME280_temperature;BME280_humidity;BME280_pressure;Samples;Min_cycle;Max_cycle;Signal;HPM_P1;HPM_P2
2021/12/17 00:01:10;;;;;;;25.50;22.77;;;;;;;6.95;99.64;103831.75;5304083;28;20657;-72
2021/12/17 00:03:50;;;;;;;28.73;24.38;;;;;;;6.98;99.82;103833.63;5314833;28;20546;-72
2021/12/17 00:08:57;;;;;;;30.15;25.52;;;;;;;6.99;99.76;103827.59;5308603;28;20068;-71
2021/12/17 00:11:28;;;;;;;29.98;24.88;;;;;;;7.00;100.00;103827.66;5454154;22;20005;-71
2021/12/17 00:13:59;;;;;;;26.93;23.83;;;;;;;7.06;99.90;103824.50;5293906;28;20605;-71
2021/12/17 00:16:36;;;;;;;29.07;23.97;;;;;;;7.05;100.00;103817.53;5293584;28;20233;-70
2021/12/17 00:19:22;;;;;;;27.45;24.00;;;;;;;7.04;99.66;103821.84;5292954;28;20024;-71
2021/12/17 00:50:09;;;;;;;29.42;25.38;;;;;;;7.10;100.00;103813.50;5272010;28;20032;-72
2021/12/17 00:52:40;;;;;;;35.90;27.67;;;;;;;7.14;100.00;103809.34;5272046;28;20029;-71
2021/12/17 00:55:11;;;;;;;31.57;27.90;;;;;;;7.14;100.00;103807.63;5272424;28;20024;-71
2021/12/17 00:57:45;;;;;;;32.63;27.47;;;;;;;7.17;100.00;103810.38;5263736;28;20271;-71
2021/12/17 01:00:21;;;;;;;34.15;27.33;;;;;;;7.17;100.00;103817.28;5272315;28;20553;-72
2021/12/17 01:02:52;;;;;;;33.00;28.38;;;;;;;7.19;100.00;103816.53;5272494;28;20202;-71
2021/12/17 01:05:29;;;;;;;35.67;28.00;;;;;;;7.22;100.00;103810.63;5271760;28;20025;-71
2021/12/17 01:08:04;;;;;;;33.25;26.92;;;;;;;7.22;100.00;103811.50;5272079;28;20028;-71
2021/12/17 01:10:40;;;;;;;42.00;28.90;;;;;;;7.22;100.00;103811.50;5266961;28;20040;-70
2021/12/17 01:13:11;;;;;;;38.00;27.20;;;;;;;7.22;100.00;103802.81;5276510;28;20044;-71
2021/12/17 01:15:45;;;;;;;32.03;28.10;;;;;;;7.23;100.00;103802.91;5291607;28;20087;-72
2021/12/17 01:18:20;;;;;;;35.42;27.73;;;;;;;7.19;100.00;103790.59;5292889;28;20039;-71
2021/12/17 01:24:01;;;;;;;34.13;29.45;;;;;;;7.21;100.00;103794.16;5293232;28;20043;-72
2021/12/17 01:35:28;;;;;;;33.70;27.90;;;;;;;7.22;100.00;103803.72;5335714;28;20047;-73
2021/12/17 01:44:10;;;;;;;36.97;28.95;;;;;;;7.22;100.00;103795.94;5247554;28;20080;-72
2021/12/17 01:46:44;;;;;;;33.83;27.27;;;;;;;7.23;100.00;103799.41;5247963;28;20049;-71
2021/12/17 02:00:34;;;;;;;37.08;28.60;;;;;;;7.16;100.00;103790.44;5247395;28;20068;-71
2021/12/17 02:03:07;;;;;;;36.00;27.83;;;;;;;7.18;100.00;103801.78;5247976;28;20111;-71
2021/12/17 02:05:39;;;;;;;38.80;29.80;;;;;;;7.20;100.00;103789.78;5247494;28;20404;-70
2021/12/17 02:08:11;;;;;;;41.73;30.90;;;;;;;7.21;100.00;103788.97;5247632;28;20025;-71
2021/12/17 02:33:09;;;;;;;53.20;36.00;;;;;;;7.18;100.00;103799.19;5248334;22;20057;-71
2021/12/17 02:35:44;;;;;;;54.40;35.07;;;;;;;7.20;100.00;103801.88;5233311;28;20115;-71
2021/12/17 02:38:16;;;;;;;52.17;35.05;;;;;;;7.22;100.00;103806.31;5254012;28;20480;-71
2021/12/17 02:46:28;;;;;;;51.03;35.65;;;;;;;7.29;100.00;103797.13;5253574;28;20516;-71
2021/12/17 02:49:00;;;;;;;52.40;35.43;;;;;;;7.30;100.00;103802.38;5253320;28;20021;-71
2021/12/17 02:51:32;;;;;;;57.55;38.70;;;;;;;7.32;100.00;103801.56;5253725;28;20025;-71
2021/12/17 02:54:03;;;;;;;60.87;40.50;;;;;;;7.26;100.00;103787.50;5253887;28;20031;-71
2021/12/17 02:56:34;;;;;;;63.43;41.23;;;;;;;7.29;100.00;103791.91;5242550;28;20520;-71
2021/12/17 02:59:10;;;;;;;60.57;40.37;;;;;;;7.27;100.00;103796.16;5222659;28;20131;-71
2021/12/17 03:01:45;;;;;;;62.28;40.25;;;;;;;7.27;100.00;103794.44;5253768;28;20025;-71
2021/12/17 03:04:19;;;;;;;59.83;38.97;;;;;;;7.28;100.00;103796.22;5253839;28;20029;-71
2021/12/17 03:06:50;;;;;;;64.20;39.72;;;;;;;7.30;100.00;103794.59;5252922;28;20358;-72
2021/12/17 03:09:36;;;;;;;66.30;41.73;;;;;;;7.24;100.00;103791.69;5253690;28;20032;-71
2021/12/17 03:12:18;;;;;;;67.35;41.33;;;;;;;7.31;100.00;103798.09;5256325;28;20365;-70
2021/12/17 03:14:57;;;;;;;69.20;42.72;;;;;;;7.29;100.00;103797.13;5267621;28;20236;-72
2021/12/17 03:25:57;;;;;;;74.82;44.20;;;;;;;7.34;100.00;103807.72;5273536;28;20033;-71
2021/12/17 03:28:30;;;;;;;81.53;46.28;;;;;;;7.29;100.00;103813.59;5255085;28;20071;-72
2021/12/17 03:31:03;;;;;;;76.93;45.03;;;;;;;7.23;100.00;103813.28;5273532;28;20063;-71
2021/12/17 03:33:36;;;;;;;84.05;43.22;;;;;;;7.24;100.00;103811.56;5252595;28;20024;-71
2021/12/17 03:36:14;;;;;;;93.65;48.08;;;;;;;7.25;100.00;103815.97;5252738;28;20520;-71
2021/12/17 03:38:48;;;;;;;88.90;45.60;;;;;;;7.23;100.00;103812.38;5251617;28;20127;-72
2021/12/17 03:41:23;;;;;;;87.75;46.45;;;;;;;7.28;100.00;103804.03;5234960;28;20111;-72
2021/12/17 03:43:55;;;;;;;91.55;46.05;;;;;;;7.30;100.00;103807.56;5252342;28;20067;-71
2021/12/17 03:46:26;;;;;;;89.47;46.27;;;;;;;7.21;100.00;103801.94;5252201;28;20040;-72
2021/12/17 03:48:58;;;;;;;94.40;47.70;;;;;;;7.21;100.00;103807.13;5252177;28;20221;-72
2021/12/17 03:51:29;;;;;;;91.93;45.83;;;;;;;7.23;100.00;103812.38;5252338;28;20024;-72
2021/12/17 03:54:01;;;;;;;100.90;49.27;;;;;;;7.18;100.00;103804.38;5252537;28;20040;-71
2021/12/17 03:56:32;;;;;;;94.37;48.30;;;;;;;7.26;100.00;103804.75;5252673;28;20033;-71
2021/12/17 03:59:10;;;;;;;112.37;49.87;;;;;;;7.21;100.00;103806.22;5252349;28;20028;-72
2021/12/17 04:01:41;;;;;;;100.07;47.25;;;;;;;7.24;100.00;103803.78;5252602;28;20495;-72
2021/12/17 04:04:13;;;;;;;113.73;50.03;;;;;;;7.19;100.00;103805.28;5233765;28;20045;-71
2021/12/17 04:06:44;;;;;;;116.27;51.37;;;;;;;7.16;100.00;103811.19;5252548;28;20136;-71
2021/12/17 04:12:00;;;;;;;118.00;51.33;;;;;;;7.12;100.00;103798.88;5588268;22;20048;-72
2021/12/17 04:14:43;;;;;;;122.10;52.85;;;;;;;7.16;100.00;103802.53;5260239;28;20033;-71
2021/12/17 04:17:22;;;;;;;;;;;;;;;7.26;100.00;103800.47;5273393;28;20052;-71
2021/12/17 04:19:53;;;;;;;114.53;50.05;;;;;;;7.20;100.00;103797.56;5492194;22;19932;-71
2021/12/17 04:22:25;;;;;;;124.43;55.20;;;;;;;7.16;100.00;103798.22;5231843;28;20073;-71
2021/12/17 04:24:56;;;;;;;115.40;51.63;;;;;;;7.18;100.00;103799.19;5231339;28;20034;-71
2021/12/17 04:27:27;;;;;;;132.63;55.73;;;;;;;7.20;100.00;103797.56;5231431;28;20055;-71
2021/12/17 04:29:59;;;;;;;129.03;55.20;;;;;;;7.20;100.00;103797.56;5230919;28;20048;-71
2021/12/17 04:32:30;;;;;;;118.47;52.87;;;;;;;7.19;100.00;103800.97;5230986;28;20512;-72
2021/12/17 04:35:03;;;;;;;130.10;54.07;;;;;;;7.17;100.00;103800.00;5230987;28;20034;-71
2021/12/17 04:37:35;;;;;;;138.07;55.42;;;;;;;7.16;100.00;103798.22;5231784;28;20040;-71
2021/12/17 04:40:07;;;;;;;120.93;52.87;;;;;;;7.21;100.00;103796.75;5231089;28;20025;-73
2021/12/17 04:42:58;;;;;;;129.60;56.95;;;;;;;7.17;100.00;103796.53;5230774;28;20393;-73
2021/12/17 04:45:29;;;;;;;137.45;56.92;;;;;;;7.15;100.00;103798.13;5230770;28;20022;-73
2021/12/17 04:59:20;;;;;;;140.48;54.55;;;;;;;7.24;100.00;103790.81;5217425;28;20050;-72
2021/12/17 05:01:52;;;;;;;130.07;56.13;;;;;;;7.24;100.00;103791.69;5224099;28;20336;-71
2021/12/17 05:04:26;;;;;;;132.73;57.30;;;;;;;7.22;100.00;103792.44;5230069;28;20045;-71
2021/12/17 05:06:57;;;;;;;146.75;57.90;;;;;;;7.17;100.00;103796.53;5230496;28;20033;-73
2021/12/17 05:10:10;;;;;;;135.47;56.60;;;;;;;7.21;100.00;103796.75;5230257;28;20374;-72
2021/12/17 05:20:50;;;;;;;133.32;53.00;;;;;;;7.22;100.00;103797.63;5230364;28;20073;-72
2021/12/17 05:23:29;;;;;;;130.32;56.45;;;;;;;7.23;100.00;103799.41;5230707;28;20038;-72
2021/12/17 05:26:05;;;;;;;135.05;54.47;;;;;;;7.21;100.00;103796.75;5229871;28;20041;-72
2021/12/17 05:28:36;;;;;;;132.15;56.13;;;;;;;7.21;100.00;103803.63;5230416;28;20026;-71
2021/12/17 05:31:08;;;;;;;134.53;56.33;;;;;;;7.18;100.00;103806.06;5230159;28;20030;-73
2021/12/17 05:33:39;;;;;;;136.10;54.03;;;;;;;7.19;100.00;103811.34;5230182;28;20186;-72
2021/12/17 05:36:10;;;;;;;129.83;54.23;;;;;;;7.21;100.00;103809.72;5212332;28;20108;-72
2021/12/17 05:38:42;;;;;;;142.50;55.17;;;;;;;7.19;100.00;103807.88;5230592;28;20652;-72
2021/12/17 05:41:13;;;;;;;137.70;55.70;;;;;;;7.21;100.00;103812.31;5231070;28;20065;-72
2021/12/17 05:43:54;;;;;;;134.87;56.73;;;;;;;7.21;100.00;103819.19;5230367;28;20029;-73
2021/12/17 05:47:10;;;;;;;136.80;55.50;;;;;;;7.20;100.00;103812.25;5230476;28;20041;-72
2021/12/17 05:49:20;;;;;;;139.48;55.13;;;;;;;7.23;100.00;103809.78;5215941;28;20504;-72
2021/12/17 05:51:53;;;;;;;136.85;55.97;;;;;;;7.22;100.00;103808.91;5230494;28;20018;-73
2021/12/17 05:54:24;;;;;;;146.68;55.90;;;;;;;7.17;100.00;103796.53;5230099;28;20378;-72
2021/12/17 05:56:55;;;;;;;127.60;51.50;;;;;;;7.19;100.00;103795.78;5229980;28;20036;-71
2021/12/17 05:59:33;;;;;;;126.37;51.63;;;;;;;7.19;100.00;103797.47;5230081;28;20029;-73
2021/12/17 06:02:10;;;;;;;124.90;52.67;;;;;;;7.21;100.00;103807.13;5219791;28;20048;-71
2021/12/17 06:04:41;;;;;;;122.55;50.10;;;;;;;7.17;100.00;103815.56;5225872;28;20443;-71
2021/12/17 06:07:13;;;;;;;114.70;47.10;;;;;;;7.20;100.00;103818.31;5234351;28;20029;-72
2021/12/17 06:09:45;;;;;;;116.33;45.77;;;;;;;7.20;100.00;103815.72;5234561;28;20112;-73
2021/12/17 06:12:17;;;;;;;109.60;45.03;;;;;;;7.20;100.00;103823.50;5233731;28;20021;-73
2021/12/17 06:17:30;;;;;;;106.88;43.13;;;;;;;7.23;100.00;103826.25;5243843;22;20057;-71
2021/12/17 06:20:01;;;;;;;113.53;43.43;;;;;;;7.21;100.00;103824.38;5228959;28;20028;-71
2021/12/17 06:22:33;;;;;;;104.47;42.00;;;;;;;7.18;100.00;103821.63;5234066;28;20498;-72
2021/12/17 06:25:07;;;;;;;107.07;40.53;;;;;;;7.19;100.00;103824.31;5220604;28;20033;-70
2021/12/17 06:27:41;;;;;;;108.80;44.05;;;;;;;7.18;100.00;103832.00;5224739;28;20112;-74
2021/12/17 06:32:54;;;;;;;111.10;49.50;;;;;;;7.20;100.00;103843.38;5399248;22;20049;-72
2021/12/17 06:35:25;;;;;;;110.27;44.07;;;;;;;7.19;100.00;103841.59;5254298;28;20338;-71
2021/12/17 06:37:57;;;;;;;107.10;44.33;;;;;;;7.22;100.00;103841.75;5254881;28;20690;-72
2021/12/17 06:40:28;;;;;;;95.27;36.70;;;;;;;7.20;100.00;103841.66;5254144;28;20082;-72
2021/12/17 06:43:00;;;;;;;95.50;40.43;;;;;;;7.20;100.00;103843.38;5254379;28;20083;-73
2021/12/17 06:48:11;;;;;;;85.95;36.03;;;;;;;7.17;100.00;103836.31;5253659;28;20033;-72
2021/12/17 06:59:37;;;;;;;82.65;32.88;;;;;;;7.19;100.00;103831.22;5244620;28;20651;-72
2021/12/17 07:34:46;;;;;;;61.73;25.07;;;;;;;7.10;100.00;103835.13;5253638;28;20044;-73
2021/12/17 07:39:49;;;;;;;65.23;25.50;;;;;;;7.08;100.00;103836.75;5244999;28;20938;-71
2021/12/17 07:42:20;;;;;;;73.23;29.10;;;;;;;7.03;100.00;103824.34;5250539;28;20070;-73
2021/12/17 07:44:52;;;;;;;58.47;25.57;;;;;;;7.09;100.00;103829.84;5253495;28;20025;-73
2021/12/17 07:47:24;;;;;;;70.57;26.43;;;;;;;7.11;100.00;103831.69;5253127;28;20029;-72
2021/12/17 07:49:55;;;;;;;78.13;28.65;;;;;;;7.06;100.00;103827.09;5253242;28;20124;-73
2021/12/17 07:52:27;;;;;;;73.90;27.10;;;;;;;7.05;100.00;103827.91;5253353;28;20035;-74
2021/12/17 07:54:58;;;;;;;68.20;26.10;;;;;;;7.10;100.00;103821.28;5252786;28;20108;-74
2021/12/17 07:57:29;;;;;;;65.10;24.67;;;;;;;7.07;100.00;103824.59;5253187;28;20029;-73
2021/12/17 08:00:00;;;;;;;68.13;26.80;;;;;;;7.14;100.00;103830.97;5251954;28;20021;-72
2021/12/17 08:02:32;;;;;;;62.53;23.80;;;;;;;7.15;100.00;103832.78;5233079;28;20037;-72
2021/12/17 08:05:04;;;;;;;69.50;27.37;;;;;;;7.17;100.00;103825.06;5251656;28;20092;-72
2021/12/17 08:07:35;;;;;;;68.60;27.63;;;;;;;7.16;100.00;103826.75;5251313;28;20087;-73
2021/12/17 08:10:06;;;;;;;104.47;53.13;;;;;;;7.15;100.00;103830.19;5233809;28;20040;-74
2021/12/17 08:12:38;;;;;;;70.50;30.87;;;;;;;7.18;100.00;103835.53;5251777;28;20017;-72
2021/12/17 08:15:11;;;;;;;72.57;28.60;;;;;;;7.15;100.00;103830.19;5251839;28;20021;-73
2021/12/17 08:31:30;;;;;;;75.73;29.00;;;;;;;7.12;100.00;103851.66;5189804;28;20050;-73
2021/12/17 08:34:03;;;;;;;82.47;35.60;;;;;;;7.18;100.00;103850.19;5189100;28;20438;-74
2021/12/17 08:36:34;;;;;;;73.97;33.42;;;;;;;7.09;100.00;103853.22;5189371;28;20125;-74
2021/12/17 08:39:06;;;;;;;69.60;36.60;;;;;;;7.16;100.00;103860.47;5191460;28;20029;-72
2021/12/17 08:41:39;;;;;;;70.07;36.40;;;;;;;7.16;100.00;103862.19;5210279;28;20489;-74
2021/12/17 08:44:11;;;;;;;68.82;34.13;;;;;;;7.15;100.00;103863.91;5210516;28;20517;-71
2021/12/17 08:46:42;;;;;;;67.27;36.07;;;;;;;7.15;100.00;103863.00;5193194;28;20132;-71
2021/12/17 08:49:14;;;;;;;68.13;33.57;;;;;;;7.10;100.00;103857.59;5200281;28;20039;-72
2021/12/17 08:51:46;;;;;;;69.40;36.97;;;;;;;7.11;100.00;103856.75;5188937;28;20034;-71
2021/12/17 08:54:17;;;;;;;65.93;33.00;;;;;;;7.09;100.00;103851.50;5189249;28;20029;-71
2021/12/17 08:56:49;;;;;;;73.17;35.27;;;;;;;7.08;100.00;103848.81;5189149;28;20034;-72
2021/12/17 08:59:21;;;;;;;58.17;34.53;;;;;;;7.17;100.00;103848.41;5189590;28;20026;-72
2021/12/17 09:01:52;;;;;;;78.20;45.53;;;;;;;7.14;100.00;103848.25;5196104;28;20047;-72
2021/12/17 09:04:27;;;;;;;59.50;35.00;;;;;;;7.23;100.00;103851.28;5254685;28;20029;-72
2021/12/17 09:06:58;;;;;;;58.75;33.55;;;;;;;7.18;100.00;103856.28;5246341;28;20082;-72
2021/12/17 09:09:30;;;;;;;62.97;34.07;;;;;;;7.19;100.00;103847.66;5254741;28;20483;-71
2021/12/17 09:12:01;;;;;;;57.40;31.87;;;;;;;7.25;100.00;103852.28;5255011;28;20033;-71
2021/12/17 09:14:35;;;;;;;63.57;34.00;;;;;;;7.28;100.00;103858.50;5254931;28;20025;-71
2021/12/17 09:17:06;;;;;;;58.53;32.63;;;;;;;7.28;100.00;103857.63;5254965;28;20036;-71
2021/12/17 09:19:38;;;;;;;64.23;32.47;;;;;;;7.32;100.00;103869.03;5254552;28;20029;-72
2021/12/17 09:22:09;;;;;;;61.57;30.13;;;;;;;7.34;100.00;103867.41;5255099;28;20465;-72
2021/12/17 09:24:40;;;;;;;56.07;30.03;;;;;;;7.38;100.00;103879.75;5255190;28;20021;-72
2021/12/17 09:27:12;;;;;;;58.70;32.17;;;;;;;7.37;100.00;103890.94;5236452;28;20043;-72
2021/12/17 09:29:43;;;;;;;51.40;29.10;;;;;;;7.35;100.00;103887.38;5254666;28;20463;-72
2021/12/17 09:32:15;;;;;;;60.60;32.30;;;;;;;7.35;100.00;103889.97;5254201;28;20045;-71
2021/12/17 09:34:47;;;;;;;58.10;33.03;;;;;;;7.38;100.00;103900.50;5235801;28;20142;-72
2021/12/17 09:37:18;;;;;;;64.90;33.17;;;;;;;7.35;100.00;103895.16;5256980;28;20081;-72
2021/12/17 09:39:49;;;;;;;64.97;33.03;;;;;;;7.40;100.00;103902.34;5239602;28;20045;-71
2021/12/17 09:42:21;;;;;;;62.83;32.40;;;;;;;7.36;100.00;103900.44;5258554;28;20104;-72
2021/12/17 09:44:52;;;;;;;54.37;30.70;;;;;;;7.46;100.00;103904.38;5258611;28;20078;-72
2021/12/17 09:47:24;;;;;;;55.97;30.73;;;;;;;7.43;100.00;103896.44;5339986;22;20050;-71
2021/12/17 09:49:57;;;;;;;62.63;31.37;;;;;;;7.45;100.00;103898.31;5237890;28;20158;-71
2021/12/17 09:52:29;;;;;;;59.63;31.40;;;;;;;7.46;100.00;103899.19;5237732;28;20026;-71
2021/12/17 09:55:01;;;;;;;63.07;31.57;;;;;;;7.47;100.00;103911.31;5237883;28;20026;-71
2021/12/17 09:57:36;;;;;;;62.00;30.73;;;;;;;7.57;100.00;103923.97;5237904;28;20787;-70
2021/12/17 10:00:19;;;;;;;65.07;31.25;;;;;;;7.52;100.00;103909.88;5237914;28;20033;-73
2021/12/17 10:02:50;;;;;;;;;;;;;;;7.62;100.00;103906.91;5221134;28;20036;-72
2021/12/17 10:05:27;;;;;;;63.03;30.95;;;;;;;7.55;100.00;103915.22;5237736;28;20611;-72
2021/12/17 10:08:01;;;;;;;57.67;29.60;;;;;;;7.58;100.00;103915.38;5238303;28;20029;-72
2021/12/17 10:10:36;;;;;;;57.75;29.88;;;;;;;7.61;100.00;103925.88;5238512;28;20572;-72
2021/12/17 10:13:16;;;;;;;60.53;30.75;;;;;;;7.62;100.00;103917.28;5237539;28;20021;-72
2021/12/17 10:16:02;;;;;;;58.70;30.38;;;;;;;7.64;100.00;103919.97;5238085;28;20053;-71
2021/12/17 10:18:38;;;;;;;51.72;26.95;;;;;;;7.71;100.00;103921.16;5237969;28;20025;-71
2021/12/17 10:21:16;;;;;;;57.55;29.73;;;;;;;7.62;100.00;103921.59;5237878;28;20512;-72
2021/12/17 10:23:49;;;;;;;54.05;28.67;;;;;;;7.66;100.00;103916.66;5236689;28;20568;-71
2021/12/17 10:26:22;;;;;;;55.97;28.88;;;;;;;7.69;100.00;103921.09;5218952;28;20059;-71
2021/12/17 10:28:59;;;;;;;55.75;27.58;;;;;;;7.77;100.00;103922.34;5237153;28;20025;-71
2021/12/17 10:31:35;;;;;;;56.30;29.38;;;;;;;7.77;100.00;103924.06;5236955;28;20030;-73
2021/12/17 10:34:06;;;;;;;52.80;27.77;;;;;;;7.84;100.00;103933.91;5237264;28;20350;-73
2021/12/17 10:36:43;;;;;;;50.40;25.90;;;;;;;7.86;100.00;103921.94;5237576;28;20030;-72
2021/12/17 10:39:20;;;;;;;51.90;26.25;;;;;;;7.77;100.00;103921.47;5237261;28;20038;-71
2021/12/17 10:41:52;;;;;;;47.28;23.65;;;;;;;7.75;100.00;103923.09;5236966;28;20057;-72
2021/12/17 10:44:24;;;;;;;46.60;24.45;;;;;;;7.86;100.00;103916.72;5237311;28;20025;-72
2021/12/17 10:47:30;;;;;;;46.80;23.33;;;;;;;7.87;100.00;103920.22;5236417;28;20083;-72
2021/12/17 10:50:03;;;;;;;42.97;21.10;;;;;;;7.92;100.00;103922.22;5236396;28;20039;-70
2021/12/17 11:01:01;;;;;;;39.08;18.42;;;;;;;8.01;100.00;103927.84;4605416;22;20063;-72
2021/12/17 11:03:40;;;;;;;36.75;18.77;;;;;;;7.98;100.00;103925.09;5278686;28;20035;-71
2021/12/17 11:06:12;;;;;;;33.40;16.42;;;;;;;8.04;100.00;103925.41;5278281;28;20024;-71
2021/12/17 11:08:45;;;;;;;34.03;17.57;;;;;;;8.04;100.00;103927.13;5260693;28;20071;-71
2021/12/17 11:11:19;;;;;;;39.28;17.08;;;;;;;8.10;100.00;103930.00;5277882;28;20028;-72
2021/12/17 11:13:58;;;;;;;34.90;17.75;;;;;;;8.08;100.00;103929.03;5278647;28;20105;-71
2021/12/17 11:16:30;;;;;;;40.10;18.50;;;;;;;8.15;100.00;103918.13;5279684;28;20100;-71
2021/12/17 11:19:02;;;;;;;37.47;18.63;;;;;;;8.16;100.00;103921.59;5277717;28;20024;-72
2021/12/17 11:21:34;;;;;;;39.33;18.10;;;;;;;8.19;100.00;103914.88;5288473;28;20382;-72
2021/12/17 11:24:07;;;;;;;39.60;18.77;;;;;;;8.24;100.00;103919.38;5298585;28;20035;-73
2021/12/17 11:26:40;;;;;;;38.95;17.77;;;;;;;8.27;100.00;103917.81;5298752;28;20665;-73
2021/12/17 11:29:11;;;;;;;34.67;17.75;;;;;;;8.26;100.00;103907.34;5298854;28;20028;-71
2021/12/17 11:31:43;;;;;;;35.27;17.67;;;;;;;8.30;100.00;103904.06;5290025;28;20028;-71
2021/12/17 11:34:18;;;;;;;38.43;17.70;;;;;;;8.36;100.00;103899.16;5281396;28;20029;-73
2021/12/17 11:36:49;;;;;;;34.70;18.25;;;;;;;8.30;100.00;103898.88;5277266;28;20054;-72
2021/12/17 11:39:33;;;;;;;40.23;17.33;;;;;;;8.28;100.00;103904.00;5849511;22;20045;-70
2021/12/17 11:42:24;;;;;;;32.92;17.40;;;;;;;8.24;100.00;103896.88;5256119;28;20100;-72
2021/12/17 11:47:50;;;;;;;33.70;17.38;;;;;;;8.23;100.00;103887.31;5256226;28;20041;-72
2021/12/17 11:50:22;;;;;;;33.72;17.48;;;;;;;8.22;100.00;103881.19;5238507;28;20037;-72
2021/12/17 11:52:55;;;;;;;35.40;17.60;;;;;;;8.17;100.00;103874.03;5257178;28;20039;-72
2021/12/17 11:55:36;;;;;;;34.75;17.70;;;;;;;8.27;100.00;103877.94;5271637;28;20036;-70
2021/12/17 11:58:11;;;;;;;31.08;16.25;;;;;;;8.36;100.00;103883.56;5238528;28;20120;-72
2021/12/17 12:00:45;;;;;;;35.15;17.75;;;;;;;8.39;100.00;103881.13;5256216;28;20036;-73
2021/12/17 12:03:19;;;;;;;31.52;17.50;;;;;;;8.39;100.00;103878.53;5364053;22;20179;-72
2021/12/17 12:06:00;;;;;;;30.48;17.23;;;;;;;8.36;100.00;103876.66;5297598;28;20032;-71
2021/12/17 12:08:48;;;;;;;32.03;15.55;;;;;;;8.44;100.00;103871.84;5298118;28;20032;-72
2021/12/17 12:11:23;;;;;;;33.00;28.17;;;;;;;8.44;100.00;103876.16;5299170;28;20119;-70
2021/12/17 12:13:55;;;;;;;30.48;16.58;;;;;;;8.34;100.00;103880.00;5309806;28;20036;-73
2021/12/17 12:16:30;;;;;;;28.88;16.23;;;;;;;8.42;100.00;103886.47;5299075;28;20036;-70
2021/12/17 12:19:04;;;;;;;28.48;15.35;;;;;;;8.30;100.00;103889.38;5297146;28;20038;-72
2021/12/17 12:21:38;;;;;;;24.42;14.95;;;;;;;8.26;100.00;103890.06;5298121;28;20145;-73
2021/12/17 12:24:21;;;;;;;25.83;15.35;;;;;;;8.29;100.00;103889.28;5297676;28;20043;-72
2021/12/17 12:26:53;;;;;;;23.27;15.05;;;;;;;8.22;100.00;103893.31;5297843;28;20121;-74
2021/12/17 12:29:26;;;;;;;32.97;16.37;;;;;;;8.26;100.00;103892.66;5296719;28;20452;-71
2021/12/17 12:32:12;;;;;;;26.58;15.07;;;;;;;8.27;100.00;103889.22;5298248;28;20493;-72
2021/12/17 12:34:44;;;;;;;26.20;15.63;;;;;;;8.20;100.00;103888.03;5297946;28;20036;-71
2021/12/17 12:37:23;;;;;;;26.80;15.07;;;;;;;8.23;100.00;103876.91;5298256;28;20016;-71
2021/12/17 12:39:57;;;;;;;25.42;14.77;;;;;;;8.21;100.00;103881.13;5297132;28;20085;-73
2021/12/17 12:42:35;;;;;;;24.70;13.65;;;;;;;8.14;100.00;103885.16;5297877;28;20027;-70
2021/12/17 12:45:12;;;;;;;23.65;15.18;;;;;;;8.17;100.00;103876.63;5297837;28;20475;-71
2021/12/17 12:47:51;;;;;;;23.77;15.20;;;;;;;8.16;100.00;103867.94;5297395;28;20035;-75
2021/12/17 12:50:27;;;;;;;27.15;16.98;;;;;;;8.16;100.00;103869.63;5297470;28;20479;-73
2021/12/17 12:53:02;;;;;;;23.40;15.75;;;;;;;8.19;100.00;103874.97;5297796;28;20027;-73
2021/12/17 12:55:43;;;;;;;22.17;14.25;;;;;;;8.27;100.00;103880.53;5297313;28;20403;-72
2021/12/17 12:58:24;;;;;;;22.92;14.70;;;;;;;8.17;100.00;103864.50;5297010;28;20054;-70
2021/12/17 13:01:00;;;;;;;25.58;14.35;;;;;;;8.21;100.00;103871.66;5297668;28;20024;-72
2021/12/17 13:03:35;;;;;;;22.42;12.50;;;;;;;8.18;100.00;103860.22;5295753;28;20048;-72
2021/12/17 13:06:07;;;;;;;16.80;11.10;;;;;;;8.10;100.00;103865.06;5297678;28;20050;-72
2021/12/17 13:08:38;;;;;;;15.85;11.32;;;;;;;8.08;100.00;103871.88;5297597;28;20028;-72
2021/12/17 13:11:09;;;;;;;16.87;12.07;;;;;;;8.06;100.00;103868.31;5296053;28;20089;-71
2021/12/17 13:13:51;;;;;;;21.20;12.13;;;;;;;7.97;100.00;103873.97;5341712;22;20640;-72
2021/12/17 13:24:31;;;;;;;23.10;14.68;;;;;;;7.80;100.00;103872.28;5276182;28;20407;-75
2021/12/17 13:27:11;;;;;;;22.60;14.07;;;;;;;7.85;100.00;103870.78;5275938;28;20158;-72
2021/12/17 13:29:44;;;;;;;24.15;13.80;;;;;;;7.89;100.00;103871.81;5276625;28;20108;-72
2021/12/17 13:34:59;;;;;;;19.02;13.18;;;;;;;7.85;100.00;103865.59;5407825;22;19924;-71
2021/12/17 13:37:33;;;;;;;20.73;14.15;;;;;;;7.77;100.00;103866.94;5276424;28;20034;-71
2021/12/17 13:40:09;;;;;;;22.95;13.00;;;;;;;7.82;100.00;103870.63;5275592;28;20028;-73
2021/12/17 13:42:43;;;;;;;20.85;13.02;;;;;;;7.83;100.00;103862.03;5276026;28;20078;-73
2021/12/17 13:45:18;;;;;;;28.08;11.90;;;;;;;7.80;100.00;103867.09;5275136;28;20101;-72
2021/12/17 13:47:55;;;;;;;13.55;10.18;;;;;;;7.77;100.00;103864.34;5275899;28;20047;-72
2021/12/17 13:50:32;;;;;;;15.07;10.27;;;;;;;7.73;100.00;103871.09;5275806;28;20189;-72
2021/12/17 13:53:12;;;;;;;10.65;8.70;;;;;;;7.76;100.00;103865.13;5276056;28;20115;-72
2021/12/17 13:55:47;;;;;;;10.85;7.90;;;;;;;7.69;100.00;103866.56;5275733;28;20119;-71
2021/12/17 13:58:24;;;;;;;13.07;7.97;;;;;;;7.68;100.00;103872.59;5275585;28;20392;-70
2021/12/17 14:00:58;;;;;;;11.32;8.48;;;;;;;7.68;100.00;103870.00;5276023;28;20039;-71
2021/12/17 14:03:34;;;;;;;106.22;70.30;;;;;;;7.65;100.00;103868.13;5276221;28;20033;-71
2021/12/17 14:06:19;;;;;;;24.88;17.65;;;;;;;7.63;100.00;103871.44;5276181;28;20082;-72
2021/12/17 14:08:53;;;;;;;9.15;7.15;;;;;;;7.65;100.00;103875.91;5275800;28;20060;-72
2021/12/17 14:11:30;;;;;;;10.32;7.97;;;;;;;7.63;100.00;103874.03;5275893;28;20028;-71
2021/12/17 14:19:39;;;;;;;9.25;6.30;;;;;;;7.69;100.00;103876.06;5977195;22;20053;-70
2021/12/17 14:22:33;;;;;;;9.38;6.68;;;;;;;7.62;100.00;103867.97;5280559;28;20111;-70
2021/12/17 14:30:35;;;;;;;11.32;9.52;;;;;;;7.53;100.00;103884.78;5289656;26;20059;-71
2021/12/17 14:33:09;;;;;;;10.77;6.03;;;;;;;7.54;100.00;103879.69;5300049;28;20028;-72
2021/12/17 14:35:57;;;;;;;8.82;5.60;;;;;;;7.53;100.00;103882.19;5300431;28;20028;-73
2021/12/17 14:38:40;;;;;;;8.88;6.60;;;;;;;7.49;100.00;103875.97;5299964;28;20069;-71
2021/12/17 14:41:32;;;;;;;12.68;8.05;;;;;;;7.48;100.00;103872.47;5300219;28;20024;-73
2021/12/17 14:44:38;;;;;;;10.15;8.05;;;;;;;7.47;100.00;103872.38;5300239;28;20032;-71
2021/12/17 15:03:59;;;;;;;9.45;6.85;;;;;;;7.26;100.00;103869.59;5261914;26;20052;-74
2021/12/17 15:06:31;;;;;;;7.60;6.40;;;;;;;7.28;100.00;103862.81;5278813;28;20450;-74
2021/12/17 15:09:03;;;;;;;8.90;5.80;;;;;;;7.31;100.00;103860.38;5278562;28;20486;-71
2021/12/17 15:11:41;;;;;;;9.43;6.20;;;;;;;7.32;100.00;103859.53;5278497;23;20077;-73
2021/12/17 15:14:12;;;;;;;6.97;5.70;;;;;;;7.23;100.00;103865.19;5251143;28;20056;-72
2021/12/17 15:16:46;;;;;;;10.00;6.07;;;;;;;7.29;100.00;103865.50;5258134;28;20433;-73
2021/12/17 15:19:17;;;;;;;7.10;6.32;;;;;;;7.24;100.00;103866.94;5257921;28;20033;-72
2021/12/17 15:21:51;;;;;;;8.33;6.10;;;;;;;7.25;100.00;103873.91;5257785;28;20171;-73
2021/12/17 15:24:22;;;;;;;8.05;6.10;;;;;;;7.21;100.00;103874.59;5257676;28;20903;-73
2021/12/17 15:26:54;;;;;;;9.23;6.63;;;;;;;7.24;100.00;103869.53;5256619;28;20037;-72
2021/12/17 15:29:25;;;;;;;10.20;6.97;;;;;;;7.19;100.00;103871.00;5257426;28;20488;-72
2021/12/17 15:31:57;;;;;;;6.60;5.47;;;;;;;7.13;100.00;103868.09;5257564;28;20035;-72
2021/12/17 15:34:28;;;;;;;7.23;5.83;;;;;;;7.09;100.00;103866.19;5256139;28;20041;-72
2021/12/17 15:37:00;;;;;;;6.40;5.63;;;;;;;7.10;100.00;103870.56;5256663;28;20037;-74